createdAt,value
2017-08-27T00:00:51.625Z,59.53
2017-08-27T00:02:00.610Z,59.4
2017-08-27T00:03:09.591Z,59.63
2017-08-27T00:04:18.255Z,59.59
2017-08-27T00:05:27.222Z,59.4
2017-08-27T00:06:36.186Z,59.5
2017-08-27T00:07:45.157Z,59.4
2017-08-27T00:08:54.753Z,59.69
2017-08-27T00:10:03.418Z,59.4
2017-08-27T00:11:12.380Z,59.4
2017-08-27T00:12:21.681Z,59.5
2017-08-27T00:13:30.647Z,59.4
2017-08-27T00:14:39.622Z,59.43
2017-08-27T00:15:48.585Z,59.53
2017-08-27T00:16:57.859Z,59.4
2017-08-27T00:18:06.669Z,59.43
2017-08-27T00:19:15.633Z,59.79
2017-08-27T00:20:25.278Z,59.63
2017-08-27T00:21:33.930Z,59.59
2017-08-27T00:22:42.898Z,59.59
2017-08-27T00:23:51.557Z,59.59
2017-08-27T00:25:00.833Z,59.79
2017-08-27T00:26:10.464Z,59.59
2017-08-27T00:27:19.740Z,59.79
2017-08-27T00:28:28.730Z,59.5
2017-08-27T00:29:37.695Z,59.69
2017-08-27T00:30:46.991Z,59.5
2017-08-27T00:31:56.300Z,59.5
2017-08-27T00:33:04.953Z,59.4
2017-08-27T00:34:13.618Z,59.4
2017-08-27T00:35:22.293Z,59.59
2017-08-27T00:36:30.938Z,59.4
2017-08-27T00:37:39.617Z,59.31
2017-08-27T00:38:48.283Z,59.31
2017-08-27T00:39:57.242Z,59.31
2017-08-27T00:41:05.898Z,59.79
2017-08-27T00:42:14.563Z,59.21
2017-08-27T00:43:23.536Z,59.69
2017-08-27T00:44:32.504Z,59.79
2017-08-27T00:45:41.803Z,59.59
2017-08-27T00:46:51.403Z,59.59
2017-08-27T00:48:00.685Z,59.59
2017-08-27T00:49:09.650Z,59.59
2017-08-27T00:50:18.646Z,59.59
2017-08-27T00:51:27.607Z,59.59
2017-08-27T00:52:37.260Z,59.11
2017-08-27T00:53:46.245Z,59.59
2017-08-27T00:54:55.212Z,59.59
2017-08-27T00:56:04.176Z,59.4
2017-08-27T00:57:13.453Z,59.59
2017-08-27T00:58:22.108Z,59.59
2017-08-27T00:59:30.761Z,59.5
2017-08-27T01:00:39.419Z,59.4
2017-08-27T01:01:48.384Z,59.4
2017-08-27T01:02:57.363Z,59.59
2017-08-27T01:04:06.349Z,59.4
2017-08-27T01:05:15.314Z,59.59
2017-08-27T01:06:23.981Z,59.59
2017-08-27T01:07:32.959Z,59.5
2017-08-27T01:08:41.617Z,59.4
2017-08-27T01:09:50.274Z,59.59
2017-08-27T01:10:59.247Z,59.59
2017-08-27T01:12:09.155Z,59.4
2017-08-27T01:13:18.108Z,59.59
2017-08-27T01:14:27.397Z,59.59
2017-08-27T01:15:36.065Z,59.4
2017-08-27T01:16:45.027Z,59.59
2017-08-27T01:17:54.946Z,59.59
2017-08-27T01:19:04.229Z,59.5
2017-08-27T01:20:13.513Z,59.5
2017-08-27T01:21:22.475Z,59.59
2017-08-27T01:22:31.185Z,59.59
2017-08-27T01:23:40.781Z,59.59
2017-08-27T01:24:49.462Z,59.59
2017-08-27T01:25:58.501Z,59.59
2017-08-27T01:27:07.505Z,59.59
2017-08-27T01:28:16.808Z,59.59
2017-08-27T01:29:25.782Z,59.79
2017-08-27T01:30:34.751Z,59.59
2017-08-27T01:31:43.742Z,59.31
2017-08-27T01:32:52.403Z,59.79
2017-08-27T01:34:01.386Z,59.5
2017-08-27T01:35:10.376Z,59.5
2017-08-27T01:36:19.050Z,59.69
2017-08-27T01:37:28.028Z,59.59
2017-08-27T01:38:37.321Z,59.59
2017-08-27T01:39:46.309Z,59.4
2017-08-27T01:40:55.271Z,59.4
2017-08-27T01:42:04.633Z,59.69
2017-08-27T01:43:13.920Z,59.4
2017-08-27T01:44:22.901Z,59.59
2017-08-27T01:45:31.866Z,59.4
2017-08-27T01:46:40.524Z,59.59
2017-08-27T01:47:49.500Z,59.5
2017-08-27T01:48:58.180Z,59.79
2017-08-27T01:50:07.481Z,59.79
2017-08-27T01:51:16.438Z,59.79
2017-08-27T01:52:25.446Z,59.4
2017-08-27T01:53:34.733Z,59.59
2017-08-27T01:54:43.399Z,59.4
2017-08-27T01:55:52.683Z,59.4
2017-08-27T01:57:01.969Z,59.59
2017-08-27T01:58:11.583Z,59.59
2017-08-27T01:59:20.249Z,59.4
2017-08-27T02:00:29.550Z,59.59
2017-08-27T02:01:38.522Z,59.59
2017-08-27T02:02:47.802Z,59.59
2017-08-27T02:03:56.471Z,59.76
2017-08-27T02:05:05.770Z,59.59
2017-08-27T02:06:14.743Z,59.59
2017-08-27T02:07:23.729Z,59.56
2017-08-27T02:08:33.009Z,59.56
2017-08-27T02:09:42.287Z,59.4
2017-08-27T02:10:51.582Z,59.4
2017-08-27T02:12:00.880Z,59.4
2017-08-27T02:13:09.548Z,59.28
2017-08-27T02:14:19.145Z,59.56
2017-08-27T02:15:28.117Z,59.66
2017-08-27T02:16:37.092Z,59.47
2017-08-27T02:17:46.728Z,59.28
2017-08-27T02:18:56.334Z,59.28
2017-08-27T02:20:05.630Z,59.56
2017-08-27T02:21:15.238Z,59.38
2017-08-27T02:22:24.829Z,59.47
2017-08-27T02:23:33.803Z,59.56
2017-08-27T02:24:42.772Z,59.38
2017-08-27T02:25:52.069Z,59.56
2017-08-27T02:27:01.052Z,59.56
2017-08-27T02:28:10.027Z,59.66
2017-08-27T02:29:19.313Z,59.56
2017-08-27T02:30:28.281Z,59.86
2017-08-27T02:31:37.890Z,59.28
2017-08-27T02:32:46.541Z,59.56
2017-08-27T02:33:55.856Z,60.05
2017-08-27T02:35:05.134Z,60.05
2017-08-27T02:36:14.418Z,60.05
2017-08-27T02:37:24.024Z,59.95
2017-08-27T02:38:32.995Z,59.95
2017-08-27T02:39:42.588Z,59.95
2017-08-27T02:40:51.562Z,60.05
2017-08-27T02:42:01.156Z,60.14
2017-08-27T02:43:10.134Z,60.14
2017-08-27T02:44:18.790Z,59.92
2017-08-27T02:45:27.761Z,59.92
2017-08-27T02:46:36.708Z,59.92
2017-08-27T02:47:45.668Z,59.73
2017-08-27T02:48:54.971Z,59.73
2017-08-27T02:50:04.882Z,60.21
2017-08-27T02:51:13.969Z,59.73
2017-08-27T02:52:23.269Z,59.92
2017-08-27T02:53:31.993Z,60.02
2017-08-27T02:54:40.974Z,60.02
2017-08-27T02:55:49.638Z,60.02
2017-08-27T02:56:58.300Z,59.83
2017-08-27T02:58:07.594Z,59.92
2017-08-27T02:59:16.560Z,59.92
2017-08-27T03:00:25.529Z,60.02
2017-08-27T03:01:34.493Z,59.83
2017-08-27T03:02:43.470Z,59.92
2017-08-27T03:03:52.446Z,60.02
2017-08-27T03:05:01.731Z,60.31
2017-08-27T03:06:10.766Z,60.21
2017-08-27T03:07:19.743Z,60.31
2017-08-27T03:08:28.721Z,60.5
2017-08-27T03:09:37.683Z,60.41
2017-08-27T03:10:46.988Z,60.41
2017-08-27T03:11:56.271Z,60.6
2017-08-27T03:13:05.541Z,60.47
2017-08-27T03:14:14.206Z,60.41
2017-08-27T03:15:23.168Z,60.57
2017-08-27T03:16:32.773Z,60.47
2017-08-27T03:17:41.436Z,60.69
2017-08-27T03:18:50.721Z,60.47
2017-08-27T03:20:00.317Z,60.67
2017-08-27T03:21:09.624Z,60.57
2017-08-27T03:22:18.661Z,60.6
2017-08-27T03:23:27.941Z,60.41
2017-08-27T03:24:37.235Z,60.31
2017-08-27T03:25:46.842Z,60.31
2017-08-27T03:26:56.150Z,60.31
2017-08-27T03:28:05.436Z,60.41
2017-08-27T03:29:15.028Z,60.38
2017-08-27T03:30:23.689Z,60.31
2017-08-27T03:31:32.400Z,60.5
2017-08-27T03:32:41.684Z,60.38
2017-08-27T03:33:51.277Z,60.41
2017-08-27T03:34:59.926Z,60.38
2017-08-27T03:36:08.900Z,60.6
2017-08-27T03:37:17.544Z,60.5
2017-08-27T03:38:26.212Z,60.47
2017-08-27T03:39:35.176Z,60.47
2017-08-27T03:40:44.463Z,60.47
2017-08-27T03:41:53.779Z,60.38
2017-08-27T03:43:02.758Z,60.38
2017-08-27T03:44:11.738Z,60.38
2017-08-27T03:45:20.740Z,60.47
2017-08-27T03:46:30.033Z,60.76
2017-08-27T03:47:39.015Z,60.67
2017-08-27T03:48:47.669Z,60.67
2017-08-27T03:49:56.712Z,60.38
2017-08-27T03:51:05.446Z,60.76
2017-08-27T03:52:14.754Z,60.67
2017-08-27T03:53:23.727Z,60.57
2017-08-27T03:54:32.701Z,60.47
2017-08-27T03:55:41.676Z,60.57
2017-08-27T03:56:50.635Z,60.47
2017-08-27T03:57:59.302Z,60.57
2017-08-27T03:59:08.292Z,60.57
2017-08-27T04:00:17.258Z,60.38
2017-08-27T04:01:26.246Z,60.76
2017-08-27T04:02:35.547Z,60.47
2017-08-27T04:03:45.164Z,60.67
2017-08-27T04:04:54.145Z,60.76
2017-08-27T04:06:03.133Z,60.57
2017-08-27T04:07:11.803Z,60.47
2017-08-27T04:08:20.781Z,60.38
2017-08-27T04:09:29.762Z,60.57
2017-08-27T04:10:39.041Z,60.18
2017-08-27T04:11:48.021Z,60.57
2017-08-27T04:12:57.313Z,60.18
2017-08-27T04:14:05.977Z,59.89
2017-08-27T04:15:15.880Z,59.99
2017-08-27T04:16:25.161Z,60.09
2017-08-27T04:17:33.823Z,59.8
2017-08-27T04:18:43.122Z,60.09
2017-08-27T04:19:51.796Z,59.6
2017-08-27T04:21:01.142Z,59.25
2017-08-27T04:22:10.440Z,59.34
2017-08-27T04:23:19.408Z,59.22
2017-08-27T04:24:28.684Z,59.25
2017-08-27T04:25:38.588Z,59.25
2017-08-27T04:26:47.245Z,59.25
2017-08-27T04:27:56.527Z,59.15
2017-08-27T04:29:06.133Z,59.25
2017-08-27T04:30:15.109Z,59.15
2017-08-27T04:31:23.825Z,59.25
2017-08-27T04:32:32.798Z,59.15
2017-08-27T04:33:41.787Z,59.12
2017-08-27T04:34:51.073Z,59.15
2017-08-27T04:36:00.361Z,59.15
2017-08-27T04:37:09.009Z,59.25
2017-08-27T04:38:17.996Z,59.34
2017-08-27T04:39:26.965Z,59.25
2017-08-27T04:40:36.255Z,59.22
2017-08-27T04:41:45.856Z,59.25
2017-08-27T04:42:55.170Z,59.44
2017-08-27T04:46:36.832Z,59.25
2017-08-27T04:47:45.799Z,59.34
2017-08-27T04:48:54.465Z,59.51
2017-08-27T04:52:36.429Z,60.09
2017-08-27T04:53:45.713Z,59.99
2017-08-27T04:54:55.665Z,59.99
2017-08-27T04:56:05.248Z,59.99
2017-08-27T04:57:13.901Z,60.09
2017-08-27T04:58:22.878Z,59.99
2017-08-27T04:59:31.844Z,60.09
2017-08-27T05:00:41.439Z,59.8
2017-08-27T05:01:50.417Z,59.8
2017-08-27T05:02:59.736Z,60.09
2017-08-27T05:04:09.015Z,59.89
2017-08-27T05:05:17.667Z,59.99
2017-08-27T05:06:26.652Z,59.99
2017-08-27T05:07:35.629Z,59.89
2017-08-27T05:08:44.594Z,59.6
2017-08-27T05:09:54.219Z,59.41
2017-08-27T05:11:03.510Z,59.02
2017-08-27T05:12:12.470Z,59.22
2017-08-27T05:13:21.783Z,59.31
2017-08-27T05:14:30.442Z,59.22
2017-08-27T05:15:39.738Z,59.22
2017-08-27T05:16:48.411Z,59.22
2017-08-27T05:17:57.390Z,59.12
2017-08-27T05:19:06.353Z,59.22
2017-08-27T05:20:15.007Z,59.31
2017-08-27T05:21:24.292Z,59.53
2017-08-27T05:22:33.586Z,59.25
2017-08-27T05:23:42.551Z,59.51
2017-08-27T05:24:51.612Z,59.34
2017-08-27T05:26:00.962Z,59.6
2017-08-27T05:27:09.623Z,59.63
2017-08-27T05:28:19.224Z,59.53
2017-08-27T05:29:28.197Z,59.6
2017-08-27T05:30:37.651Z,59.25
2017-08-27T05:31:46.721Z,59.22
2017-08-27T05:32:56.631Z,59.31
2017-08-27T05:34:05.908Z,59.44
2017-08-27T05:35:14.572Z,59.34
2017-08-27T05:36:24.027Z,59.25
2017-08-27T05:37:33.211Z,59.44
2017-08-27T05:38:42.571Z,59.53
2017-08-27T05:39:51.600Z,59.53
2017-08-27T05:41:00.573Z,59.41
2017-08-27T05:42:09.555Z,59.25
2017-08-27T05:43:18.835Z,59.31
2017-08-27T05:44:27.812Z,59.12
2017-08-27T05:45:37.429Z,59.22
2017-08-27T05:46:47.081Z,59.31
2017-08-27T05:47:56.721Z,59.41
2017-08-27T05:49:05.698Z,59.51
2017-08-27T05:50:14.992Z,59.51
2017-08-27T05:51:23.960Z,59.44
2017-08-27T05:52:32.620Z,59.63
2017-08-27T05:53:42.217Z,59.25
2017-08-27T05:54:51.531Z,59.31
2017-08-27T05:56:00.810Z,59.44
2017-08-27T05:57:09.800Z,59.22
2017-08-27T05:58:19.097Z,59.51
2017-08-27T05:59:28.068Z,59.22
2017-08-27T06:00:36.724Z,59.41
2017-08-27T06:01:46.392Z,59.31
2017-08-27T06:02:55.680Z,59.51
2017-08-27T06:04:04.329Z,59.51
2017-08-27T06:05:13.612Z,59.51
2017-08-27T06:06:22.281Z,59.51
2017-08-27T06:07:31.571Z,59.51
2017-08-27T06:08:40.537Z,59.51
2017-08-27T06:09:49.183Z,59.51
2017-08-27T06:10:58.146Z,59.22
2017-08-27T06:12:07.220Z,59.31
2017-08-27T06:13:16.529Z,59.12
2017-08-27T06:14:25.528Z,59.31
2017-08-27T06:15:34.834Z,59.22
2017-08-27T06:16:43.832Z,59.31
2017-08-27T06:17:53.438Z,59.34
2017-08-27T06:19:02.728Z,59.73
2017-08-27T06:20:11.384Z,59.34
2017-08-27T06:21:20.343Z,59.25
2017-08-27T06:22:29.013Z,59.05
2017-08-27T06:23:38.303Z,59.25
2017-08-27T06:24:46.955Z,58.95
2017-08-27T06:25:56.253Z,58.95
2017-08-27T06:27:05.566Z,59.05
2017-08-27T06:28:14.865Z,58.95
2017-08-27T06:29:23.513Z,58.95
2017-08-27T06:30:32.520Z,58.76
2017-08-27T06:31:41.491Z,58.67
2017-08-27T06:32:50.461Z,58.86
2017-08-27T06:34:00.057Z,58.57
2017-08-27T06:35:09.036Z,58.76
2017-08-27T06:36:18.037Z,58.5
2017-08-27T06:37:27.046Z,58.5
2017-08-27T06:38:36.017Z,58.7
2017-08-27T06:39:45.615Z,58.6
2017-08-27T06:40:55.248Z,58.37
2017-08-27T06:42:03.919Z,58.37
2017-08-27T06:43:12.594Z,58.8
2017-08-27T06:44:21.252Z,58.76
2017-08-27T06:45:30.543Z,58.67
2017-08-27T06:46:39.216Z,58.47
2017-08-27T06:47:48.513Z,58.57
2017-08-27T06:48:57.180Z,58.86
2017-08-27T06:50:05.840Z,59.25
2017-08-27T06:51:15.471Z,59.25
2017-08-27T06:52:25.085Z,59.34
2017-08-27T06:53:34.068Z,58.76
2017-08-27T06:54:43.037Z,59.15
2017-08-27T06:55:52.024Z,59.15
2017-08-27T06:57:01.305Z,59.15
2017-08-27T06:58:09.959Z,59.05
2017-08-27T06:59:18.943Z,58.95
2017-08-27T07:00:27.916Z,59.05
2017-08-27T07:01:37.205Z,59.34
2017-08-27T07:02:45.854Z,58.86
2017-08-27T07:03:55.135Z,58.57
2017-08-27T07:05:04.452Z,58.47
2017-08-27T07:06:13.420Z,58.8
2017-08-27T07:07:22.701Z,58.4
2017-08-27T07:08:31.676Z,58.5
2017-08-27T07:09:41.279Z,58.21
2017-08-27T07:10:50.251Z,58.5
2017-08-27T07:11:59.531Z,58.6
2017-08-27T07:13:08.188Z,58.02
2017-08-27T07:14:17.158Z,58.02
2017-08-27T07:15:26.131Z,58.12
2017-08-27T07:16:35.098Z,58.12
2017-08-27T07:17:44.079Z,57.82
2017-08-27T07:18:52.736Z,57.76
2017-08-27T07:20:14.453Z,57.76
2017-08-27T07:21:23.457Z,57.46
2017-08-27T07:22:32.425Z,57.46
2017-08-27T07:23:41.407Z,57.56
2017-08-27T07:24:50.376Z,57.66
2017-08-27T07:25:59.685Z,57.56
2017-08-27T07:27:08.666Z,57.76
2017-08-27T07:28:18.097Z,57.95
2017-08-27T07:29:27.149Z,57.95
2017-08-27T07:30:36.769Z,58.14
2017-08-27T07:31:46.065Z,57.95
2017-08-27T07:32:55.368Z,58.04
2017-08-27T07:34:04.492Z,57.95
2017-08-27T07:35:13.800Z,57.86
2017-08-27T07:36:23.084Z,57.86
2017-08-27T07:37:31.747Z,57.76
2017-08-27T07:38:41.058Z,57.46
2017-08-27T07:39:50.819Z,57.95
2017-08-27T07:40:59.783Z,57.86
2017-08-27T07:42:09.125Z,58.04
2017-08-27T07:43:17.811Z,58.14
2017-08-27T07:44:27.086Z,58.04
2017-08-27T07:45:36.050Z,57.86
2017-08-27T07:46:45.016Z,57.66
2017-08-27T07:47:54.295Z,57.66
2017-08-27T07:49:03.949Z,58.04
2017-08-27T07:50:12.925Z,57.86
2017-08-27T07:51:21.903Z,58.04
2017-08-27T07:52:30.873Z,57.95
2017-08-27T07:53:40.168Z,58.14
2017-08-27T07:54:49.468Z,58.24
2017-08-27T07:55:58.130Z,58.14
2017-08-27T07:57:07.460Z,57.86
2017-08-27T07:58:16.128Z,57.95
2017-08-27T07:59:24.796Z,58.04
2017-08-27T08:00:33.468Z,58.04
2017-08-27T08:01:43.098Z,57.76
2017-08-27T08:02:52.426Z,57.46
2017-08-27T08:04:01.089Z,58.17
2017-08-27T08:05:10.050Z,57.95
2017-08-27T08:06:19.647Z,57.86
2017-08-27T08:07:28.610Z,57.76
2017-08-27T08:08:38.045Z,57.95
2017-08-27T08:09:47.011Z,57.86
2017-08-27T08:10:55.676Z,57.76
2017-08-27T08:12:04.969Z,57.46
2017-08-27T08:13:14.253Z,57.5
2017-08-27T08:14:22.902Z,57.59
2017-08-27T08:15:32.525Z,57.5
2017-08-27T08:16:41.512Z,57.5
2017-08-27T08:17:50.491Z,57.4
2017-08-27T08:18:59.774Z,57.11
2017-08-27T08:20:08.895Z,57.2
2017-08-27T08:21:18.193Z,56.62
2017-08-27T08:22:27.500Z,56.75
2017-08-27T08:23:36.466Z,56.75
2017-08-27T08:24:45.807Z,56.26
2017-08-27T08:25:54.927Z,56.16
2017-08-27T08:27:03.923Z,56.26
2017-08-27T08:28:12.912Z,56.07
2017-08-27T08:29:21.895Z,55.98
2017-08-27T08:30:30.551Z,55.98
2017-08-27T08:31:39.518Z,56
2017-08-27T08:32:48.543Z,56.1
2017-08-27T08:33:57.827Z,56
2017-08-27T08:35:06.852Z,55.42
2017-08-27T08:36:15.825Z,55.52
2017-08-27T08:37:24.982Z,55.32
2017-08-27T08:38:34.592Z,55.62
2017-08-27T08:39:43.586Z,55.71
2017-08-27T08:40:52.560Z,55.32
2017-08-27T08:42:01.864Z,55.32
2017-08-27T08:43:10.821Z,55.16
2017-08-27T08:44:20.122Z,54.77
2017-08-27T08:45:29.099Z,55.16
2017-08-27T08:46:38.092Z,55.16
2017-08-27T08:47:46.738Z,55.26
2017-08-27T08:48:56.166Z,54.96
2017-08-27T08:50:05.472Z,54.67
2017-08-27T08:51:14.140Z,54.67
2017-08-27T08:52:22.789Z,54.86
2017-08-27T08:53:31.830Z,54.67
2017-08-27T08:54:41.604Z,54.8
2017-08-27T08:55:51.324Z,54.5
2017-08-27T08:57:00.625Z,54.99
2017-08-27T08:58:10.636Z,54.9
2017-08-27T08:59:20.337Z,54.8
2017-08-27T09:00:29.963Z,54.31
2017-08-27T09:01:38.978Z,54.31
2017-08-27T09:02:47.973Z,54.31
2017-08-27T09:03:56.958Z,54.6
2017-08-27T09:05:06.475Z,54.5
2017-08-27T09:06:16.418Z,54.8
2017-08-27T09:07:25.916Z,54.31
2017-08-27T09:08:35.260Z,54.63
2017-08-27T09:09:44.576Z,54.53
2017-08-27T09:10:53.564Z,54.31
2017-08-27T09:12:03.206Z,54.72
2017-08-27T09:13:11.881Z,54.72
2017-08-27T09:14:20.890Z,54.63
2017-08-27T09:15:29.918Z,54.72
2017-08-27T09:16:39.324Z,54.44
2017-08-27T09:17:48.959Z,54.53
2017-08-27T09:18:58.336Z,54.72
2017-08-27T09:20:07.682Z,54.53
2017-08-27T09:21:16.399Z,54.63
2017-08-27T09:22:25.474Z,54.92
2017-08-27T09:23:34.159Z,54.24
2017-08-27T09:24:42.837Z,54.72
2017-08-27T09:25:52.453Z,54.72
2017-08-27T09:27:01.747Z,54.24
2017-08-27T09:28:11.381Z,54.63
2017-08-27T09:29:20.514Z,54.63
2017-08-27T09:30:29.610Z,54.72
2017-08-27T09:31:38.912Z,54.53
2017-08-27T09:32:47.912Z,55.41
2017-08-27T09:33:57.876Z,54.82
2017-08-27T09:35:07.040Z,55.18
2017-08-27T09:36:15.712Z,55.38
2017-08-27T09:37:24.674Z,55.77
2017-08-27T09:38:33.383Z,55.28
2017-08-27T09:39:42.078Z,55.87
2017-08-27T09:40:51.494Z,56.15
2017-08-27T09:42:00.189Z,56.15
2017-08-27T09:43:09.205Z,55.67
2017-08-27T09:44:17.901Z,56.23
2017-08-27T09:45:26.900Z,56.13
2017-08-27T09:46:35.749Z,56.41
2017-08-27T09:47:45.045Z,56.32
2017-08-27T09:48:54.344Z,56.9
2017-08-27T09:50:03.997Z,56.9
2017-08-27T09:51:13.560Z,56.61
2017-08-27T09:52:22.685Z,56.71
2017-08-27T09:53:31.672Z,57
2017-08-27T09:54:40.974Z,56.68
2017-08-27T09:55:50.271Z,56.87
2017-08-27T09:56:59.566Z,56.77
2017-08-27T09:58:09.300Z,56.87
2017-08-27T09:59:18.601Z,57.07
2017-08-27T10:00:27.981Z,57.45
2017-08-27T10:01:37.618Z,57.36
2017-08-27T10:02:46.277Z,57.36
2017-08-27T10:03:56.011Z,57.07
2017-08-27T10:05:04.988Z,57.36
2017-08-27T10:06:13.964Z,57.45
2017-08-27T10:07:22.625Z,57.55
2017-08-27T10:08:32.572Z,57.45
2017-08-27T10:09:41.396Z,57.33
2017-08-27T10:10:51.026Z,57.36
2017-08-27T10:11:59.728Z,57.45
2017-08-27T10:13:09.049Z,57.26
2017-08-27T10:14:18.359Z,57.26
2017-08-27T10:15:28.313Z,57.45
2017-08-27T10:16:37.590Z,57.45
2017-08-27T10:17:46.582Z,57.26
2017-08-27T10:18:55.236Z,57.45
2017-08-27T10:20:03.979Z,57.45
2017-08-27T10:21:13.718Z,57.36
2017-08-27T10:22:22.406Z,57.07
2017-08-27T10:23:31.453Z,57.17
2017-08-27T10:24:40.435Z,57.26
2017-08-27T10:25:49.499Z,56.77
2017-08-27T10:26:59.268Z,56.68
2017-08-27T10:28:08.896Z,56.97
2017-08-27T10:29:17.996Z,56.97
2017-08-27T10:30:27.282Z,56.87
2017-08-27T10:31:36.750Z,56.77
2017-08-27T10:32:46.533Z,56.87
2017-08-27T10:33:55.828Z,56.77
2017-08-27T10:35:05.119Z,56.59
2017-08-27T10:36:14.095Z,56.59
2017-08-27T10:37:23.408Z,56.87
2017-08-27T10:38:32.074Z,56.56
2017-08-27T10:39:41.194Z,56.59
2017-08-27T10:40:49.865Z,56.59
2017-08-27T10:41:59.482Z,56.49
2017-08-27T10:43:08.225Z,56.49
2017-08-27T10:44:17.244Z,56.59
2017-08-27T10:45:26.210Z,56.65
2017-08-27T10:46:35.501Z,56.49
2017-08-27T10:47:44.493Z,56.97
2017-08-27T10:48:53.478Z,56.87
2017-08-27T10:50:03.080Z,56.77
2017-08-27T10:51:11.737Z,56.77
2017-08-27T10:52:20.708Z,56.97
2017-08-27T10:53:29.383Z,56.77
2017-08-27T10:54:38.998Z,56.77
2017-08-27T10:55:47.983Z,56.56
2017-08-27T10:56:57.319Z,56.59
2017-08-27T10:58:05.989Z,56.59
2017-08-27T10:59:15.006Z,56.68
2017-08-27T11:00:23.672Z,56.68
2017-08-27T11:01:33.123Z,56.56
2017-08-27T11:02:42.750Z,56.49
2017-08-27T11:03:52.049Z,56.68
2017-08-27T11:05:01.363Z,56.68
2017-08-27T11:06:10.421Z,56.59
2017-08-27T11:07:19.735Z,56.68
2017-08-27T11:11:01.728Z,56.46
2017-08-27T11:12:10.385Z,56.94
2017-08-27T11:13:19.504Z,56.77
2017-08-27T11:14:28.813Z,56.75
2017-08-27T11:15:38.142Z,56.87
2017-08-27T11:16:47.419Z,56.94
2017-08-27T11:17:56.697Z,56.46
2017-08-27T11:19:05.701Z,56.65
2017-08-27T11:20:14.354Z,56.75
2017-08-27T11:21:23.022Z,56.85
2017-08-27T11:22:32.656Z,56.46
2017-08-27T11:23:41.939Z,56.94
2017-08-27T11:24:51.033Z,56.94
2017-08-27T11:26:00.335Z,56.85
2017-08-27T11:27:09.053Z,57.04
2017-08-27T11:28:18.050Z,56.94
2017-08-27T11:29:27.027Z,56.94
2017-08-27T11:30:36.356Z,56.65
2017-08-27T11:31:45.348Z,56.65
2017-08-27T11:32:54.634Z,56.46
2017-08-27T11:34:03.310Z,56.85
2017-08-27T11:35:12.293Z,56.56
2017-08-27T11:36:21.431Z,56.39
2017-08-27T11:37:30.088Z,56.49
2017-08-27T11:38:39.735Z,56.39
2017-08-27T11:39:48.728Z,56.1
2017-08-27T11:40:57.728Z,56.59
2017-08-27T11:42:07.185Z,56.39
2017-08-27T11:43:16.157Z,56.59
2017-08-27T11:44:25.127Z,56.49
2017-08-27T11:45:34.113Z,56.1
2017-08-27T11:46:42.782Z,56.26
2017-08-27T11:47:51.822Z,56.07
2017-08-27T11:49:00.828Z,56.65
2017-08-27T11:50:09.800Z,56.1
2017-08-27T11:51:19.114Z,56.26
2017-08-27T11:52:28.399Z,56.1
2017-08-27T11:53:37.418Z,56.26
2017-08-27T11:54:46.397Z,56.26
2017-08-27T11:55:56.009Z,56.49
2017-08-27T11:57:04.717Z,56
2017-08-27T11:58:13.398Z,56.2
2017-08-27T11:59:22.695Z,56.1
2017-08-27T12:00:31.997Z,56.26
2017-08-27T12:01:40.995Z,56.59
2017-08-27T12:02:49.983Z,56.46
2017-08-27T12:03:59.619Z,56
2017-08-27T12:05:08.650Z,56.1
2017-08-27T12:06:17.402Z,56.1
2017-08-27T12:07:26.710Z,56.07
2017-08-27T12:08:35.406Z,56.46
2017-08-27T12:09:44.719Z,56.16
2017-08-27T12:10:53.699Z,56.1
2017-08-27T12:12:02.691Z,56.16
2017-08-27T12:13:11.698Z,55.98
2017-08-27T12:14:20.679Z,55.98
2017-08-27T12:15:29.678Z,55.88
2017-08-27T12:16:39.449Z,56.07
2017-08-27T12:17:48.737Z,55.88
2017-08-27T12:18:57.425Z,55.98
2017-08-27T12:20:06.090Z,56.56
2017-08-27T12:21:14.779Z,56.26
2017-08-27T12:22:23.917Z,56.16
2017-08-27T12:23:32.585Z,56.16
2017-08-27T12:24:41.553Z,56.16
2017-08-27T12:25:50.530Z,56.56
2017-08-27T12:26:59.836Z,56.07
2017-08-27T12:28:08.850Z,56.07
2017-08-27T12:29:18.153Z,55.78
2017-08-27T12:30:27.455Z,56.07
2017-08-27T12:31:36.738Z,55.58
2017-08-27T12:32:46.031Z,56.07
2017-08-27T12:33:55.328Z,55.98
2017-08-27T12:35:03.993Z,55.88
2017-08-27T12:36:12.648Z,55.98
2017-08-27T12:37:21.309Z,55.98
2017-08-27T12:38:30.605Z,55.78
2017-08-27T12:39:39.938Z,55.98
2017-08-27T12:40:48.914Z,55.4
2017-08-27T12:41:58.525Z,55.49
2017-08-27T12:43:07.810Z,55.68
2017-08-27T12:44:16.798Z,55.68
2017-08-27T12:45:26.430Z,55.49
2017-08-27T12:46:36.040Z,55.3
2017-08-27T12:47:45.029Z,55.58
2017-08-27T12:48:53.998Z,55.4
2017-08-27T12:50:03.614Z,55.3
2017-08-27T12:51:12.695Z,55
2017-08-27T12:52:21.995Z,55.2
2017-08-27T12:53:30.962Z,55.2
2017-08-27T12:54:39.935Z,55.1
2017-08-27T12:55:48.906Z,55.1
2017-08-27T12:56:58.644Z,55.1
2017-08-27T12:58:07.625Z,55
2017-08-27T12:59:16.919Z,54.94
2017-08-27T13:00:25.568Z,55.04
2017-08-27T13:01:35.194Z,55.22
2017-08-27T13:02:44.193Z,55.1
2017-08-27T13:03:53.814Z,54.94
2017-08-27T13:05:03.097Z,54.74
2017-08-27T13:06:12.436Z,54.64
2017-08-27T13:07:21.727Z,54.64
2017-08-27T13:08:30.792Z,54.74
2017-08-27T13:09:39.845Z,54.94
2017-08-27T13:10:49.456Z,54.55
2017-08-27T13:11:58.754Z,54.84
2017-08-27T13:13:07.740Z,54.64
2017-08-27T13:14:17.083Z,54.55
2017-08-27T13:15:26.069Z,54.94
2017-08-27T13:16:35.114Z,54.64
2017-08-27T13:17:43.770Z,54.64
2017-08-27T13:18:53.046Z,54.55
2017-08-27T13:20:01.709Z,54.81
2017-08-27T13:21:10.673Z,54.55
2017-08-27T13:22:19.946Z,54.84
2017-08-27T13:23:28.915Z,54.55
2017-08-27T13:24:37.576Z,54.74
2017-08-27T13:25:47.643Z,54.64
2017-08-27T13:26:56.295Z,54.35
2017-08-27T13:28:05.576Z,54.16
2017-08-27T13:29:15.199Z,54.45
2017-08-27T13:30:24.175Z,54.55
2017-08-27T13:31:32.972Z,54.16
2017-08-27T13:32:42.278Z,53.97
2017-08-27T13:33:51.240Z,54.45
2017-08-27T13:35:00.522Z,54.16
2017-08-27T13:36:09.817Z,54.06
2017-08-27T13:37:18.957Z,54.26
2017-08-27T13:38:27.658Z,54.35
2017-08-27T13:39:36.628Z,54.45
2017-08-27T13:40:45.915Z,54.16
2017-08-27T13:41:54.591Z,54.45
2017-08-27T13:43:03.709Z,54.55
2017-08-27T13:44:12.738Z,54.45
2017-08-27T13:45:21.711Z,54.55
2017-08-27T13:46:30.998Z,54.45
2017-08-27T13:47:40.627Z,54.35
2017-08-27T13:48:49.585Z,54.35
2017-08-27T13:49:58.549Z,54.35
2017-08-27T13:51:07.541Z,54.55
2017-08-27T13:52:16.825Z,54.45
2017-08-27T13:53:26.111Z,54.45
2017-08-27T13:54:35.248Z,54.45
2017-08-27T13:55:44.535Z,54.45
2017-08-27T13:56:53.252Z,54.26
2017-08-27T13:58:02.540Z,54.16
2017-08-27T13:59:11.515Z,53.87
2017-08-27T14:00:20.914Z,54.06
2017-08-27T14:01:29.577Z,54.06
2017-08-27T14:02:38.544Z,54.16
2017-08-27T14:03:47.836Z,54.16
2017-08-27T14:04:56.809Z,54.06
2017-08-27T14:06:05.562Z,54.26
2017-08-27T14:07:14.533Z,54.16
2017-08-27T14:08:23.527Z,54.26
2017-08-27T14:09:32.820Z,54.06
2017-08-27T14:10:42.113Z,54.06
2017-08-27T14:11:52.037Z,54.16
2017-08-27T14:13:01.037Z,54.45
2017-08-27T14:14:10.030Z,54.45
2017-08-27T14:15:19.017Z,54.26
2017-08-27T14:16:28.333Z,54.26
2017-08-27T14:17:38.062Z,54.35
2017-08-27T14:18:46.742Z,54.55
2017-08-27T14:19:55.387Z,53.77
2017-08-27T14:21:04.057Z,53.67
2017-08-27T14:22:13.357Z,53.67
2017-08-27T14:23:22.967Z,53.67
2017-08-27T14:24:32.260Z,53.67
2017-08-27T14:25:41.242Z,53.58
2017-08-27T14:26:49.916Z,53.87
2017-08-27T14:27:58.617Z,53.67
2017-08-27T14:29:07.765Z,53.29
2017-08-27T14:30:16.733Z,53.49
2017-08-27T14:31:25.408Z,53.39
2017-08-27T14:32:34.385Z,53.39
2017-08-27T14:33:43.346Z,53.29
2017-08-27T14:34:52.482Z,53.49
2017-08-27T14:36:01.771Z,53.58
2017-08-27T14:37:10.747Z,53.41
2017-08-27T14:38:19.399Z,53.39
2017-08-27T14:39:28.368Z,53.22
2017-08-27T14:40:37.370Z,53.31
2017-08-27T14:41:46.027Z,53.22
2017-08-27T14:42:55.014Z,53.22
2017-08-27T14:44:03.986Z,53.51
2017-08-27T14:45:12.984Z,53.31
2017-08-27T14:46:22.251Z,53.02
2017-08-27T14:47:31.222Z,53.02
2017-08-27T14:48:40.511Z,53.22
2017-08-27T14:49:49.475Z,53.7
2017-08-27T14:50:58.139Z,53.31
2017-08-27T14:52:07.461Z,53.12
2017-08-27T14:53:16.123Z,53.12
2017-08-27T14:54:24.780Z,52.93
2017-08-27T14:55:34.092Z,53.12
2017-08-27T14:56:43.069Z,52.54
2017-08-27T14:57:52.358Z,53.02
2017-08-27T14:59:01.324Z,53.22
2017-08-27T15:00:10.926Z,52.73
2017-08-27T15:01:19.905Z,52.73
2017-08-27T15:02:29.204Z,52.73